LFMNLFLS

Guest
Details From LFMN - Nice/Cote d'Azur
To LFLS - St Geoirs
Flight Number -
Tags generated
Created
Modified
Stats Distance 131 nm / 243 km
Max Altitude 5,700 ft / 1,737 m
Waypoints 3
Social Downloads 0
Likes 0
Share VATSIM

Download

Looking for another format? Having issues loading an existing format? Contact us
Advertisement - Login to hide

Notes

Basic altitude profile: - Ascent Rate: 2500ft/min - Ascent Speed: 250kts - Cruise Altitude: 35000ft - Cruise Speed: 420kts - Descent Rate: 1500ft/min - Descent Speed: 250kts

Route

LFMN NEDRU LFLS

ID Type Via Altitude Latitude Longitude Leg Dist Tot Dist Heading (true) Name
O LFMN APT - 0 ft / 0 m 43.65798˚ 7.21536˚ - 0 nm - Nice/Cote d'Azur
NEDRU FIX - 5,700 ft / 1,737 m 45.07583˚ 5.81917˚ 104 nm 104 nm 325° / 324° -
O LFLS APT - 0 ft / 0 m 45.36118˚ 5.32753˚ 26 nm 131 nm 310° / 309° St Geoirs

Altitude Profile

Advertisement - Login to hide

LFMN

Details ICAO LFMN (NCE)
Name Nice/Cote d'Azur
Region France
Timezone Unknown (UTC+0.0)
Stats Elevation 12 ft / 4 m (AMSL)
Location 43.657981° 7.215362°
Runways 2
Magnetic Variation 2.016° E

METAR

LFMN 140030Z 25010KT 210V300 9999 SCT066 SCT250 10/04 Q1012 NOSIG

Decode

TAF

TAF LFMN 132000Z 1321/1503 27010KT 9999 SCT080 BECMG 1400/1402 24015G25KT

Decode

Departure Runways

ID Width Length Bearing (true) Bearing (mag) Surface Threshold Offset Overrun Length
04L 148 ft / 45 m 8,427 ft / 2,569 m 44.85° 42.83° Asphalt 0 ft / 0 m 131 ft / 40 m
04R 148 ft / 45 m 9,720 ft / 2,963 m 44.60° 42.58° Asphalt 0 ft / 0 m 427 ft / 130 m
22L 148 ft / 45 m 9,720 ft / 2,963 m 224.62° 222.60° Asphalt 0 ft / 0 m 525 ft / 160 m
22R 148 ft / 45 m 8,427 ft / 2,569 m 224.87° 222.85° Asphalt 0 ft / 0 m 492 ft / 150 m

LFLS

Details ICAO LFLS (GNB)
Name St Geoirs
Region France
Timezone Europe/Paris (UTC+1.0)
Stats Elevation 1,302 ft / 397 m (AMSL)
Location 45.361183° 5.327528°
Runways 3
Magnetic Variation 1.555° E

METAR

LFLS 140030Z AUTO 18013KT 9999 OVC046 07/03 Q1011

Decode

TAF

TAF AMD TAF AMD LFLS 132000Z 1320/1415 CNL

Decode

Destination Runways

ID Width Length Bearing (true) Bearing (mag) Surface Threshold Offset Overrun Length
09 148 ft / 45 m 9,979 ft / 3,042 m 90.22° 88.67° Asphalt 0 ft / 0 m 0 ft / 0 m
09R 102 ft / 31 m 2,951 ft / 899 m 90.20° 88.65° Grass 0 ft / 0 m 0 ft / 0 m
16 82 ft / 25 m 1,640 ft / 500 m 160.10° 158.55° Grass 0 ft / 0 m 0 ft / 0 m
27 148 ft / 45 m 9,979 ft / 3,042 m 270.24° 268.69° Asphalt 0 ft / 0 m 0 ft / 0 m
27L 102 ft / 31 m 2,951 ft / 899 m 270.20° 268.65° Grass 0 ft / 0 m 0 ft / 0 m
34 82 ft / 25 m 1,640 ft / 500 m 340.10° 338.55° Grass 0 ft / 0 m 0 ft / 0 m

Approach Navaids

Runway Type Ident Frequency Range Bearing (true) Bearing (mag) Slope Elevation
09 Localiser SG 109.30 MHz 27 nm / 50 km 90.23° 88.68° - 1,302 ft / 397 m (AMSL)
09 Glidescope SG 109.30 MHz 27 nm / 50 km 90.23° 88.68° 3.00° 1,302 ft / 397 m (AMSL)
09 DME SG 109.30 MHz 27 nm / 50 km - - - 1,302 ft / 397 m (AMSL)

Popular Alternatives